Acier — 2HOZ7 — position and weather

sailwx.info

Track history (hours):
 
Tides and Currents Weather Stations Pressure Air Temp Water Temp Dewpoint Dewpoint Depression Visibility Wind Speed Wind Dir Waves Ship Positions

Acier

Last reported at 2018-Jun-17 14:35 UTC. Time now 2018-Jun-22 23:00 UTC.
Position N 38°01' W 000°36'.

Type: Sailing vessel. MMSI: 235105439.

Date/timePositionNaut miles runAvg speedWind from/ knotsBaromVisibWave heightAir tempDewpointWater temp
2018-Jun-17 14:35N 38°01' W 000°36'1 5.9
2018-Jun-17 14:26N 37°60' W 000°36'3 5.7
2018-Jun-17 13:59N 37°57' W 000°37'3 5.8
2018-Jun-17 13:31N 37°54' W 000°37'3 5.7
2018-Jun-17 12:59N 37°52' W 000°38'3 5.8
2018-Jun-17 12:31N 37°49' W 000°39'3 5.4
2018-Jun-17 12:01N 37°46' W 000°39'3 5.3
2018-Jun-17 11:30N 37°44' W 000°40'3 5.4
2018-Jun-17 11:00N 37°41' W 000°41'3 5.0
2018-Jun-17 10:29N 37°38' W 000°41'2 3.3
2018-Jun-17 09:47N 37°36' W 000°42'1 3.8
2018-Jun-17 09:24N 37°36' W 000°44'2 3.6
2018-Jun-17 08:59N 37°35' W 000°46'2 3.2
2018-Jun-17 08:26N 37°33' W 000°47'3 4.1
2018-Jun-17 07:47N 37°33' W 000°50'  
2018-Jun-10 07:45N 37°24' W 001°33'1 5.0
2018-Jun-10 07:29N 37°23' W 001°35'  
Track history (hours):
 
Tides and Currents Weather Stations Pressure Air Temp Water Temp Dewpoint Dewpoint Depression Visibility Wind Speed Wind Dir Waves Ship Positions

Acier

Last reported at 2018-Jun-17 14:35 UTC. Time now 2018-Jun-22 23:00 UTC.
Position N 38°01' W 000°36'.

Type: Sailing vessel. MMSI: 235105439.

Date/timePositionNaut miles runAvg speedWind from/ knotsBaromVisibWave heightAir tempDewpointWater temp
2018-Jun-17 14:35N 38°01' W 000°36'1 5.9
2018-Jun-17 14:26N 37°60' W 000°36'3 5.7
2018-Jun-17 13:59N 37°57' W 000°37'3 5.8
2018-Jun-17 13:31N 37°54' W 000°37'3 5.7
2018-Jun-17 12:59N 37°52' W 000°38'3 5.8
2018-Jun-17 12:31N 37°49' W 000°39'3 5.4
2018-Jun-17 12:01N 37°46' W 000°39'3 5.3
2018-Jun-17 11:30N 37°44' W 000°40'3 5.4
2018-Jun-17 11:00N 37°41' W 000°41'3 5.0
2018-Jun-17 10:29N 37°38' W 000°41'2 3.3
2018-Jun-17 09:47N 37°36' W 000°42'1 3.8
2018-Jun-17 09:24N 37°36' W 000°44'2 3.6
2018-Jun-17 08:59N 37°35' W 000°46'2 3.2
2018-Jun-17 08:26N 37°33' W 000°47'3 4.1
2018-Jun-17 07:47N 37°33' W 000°50'  
2018-Jun-10 07:45N 37°24' W 001°33'1 5.0
2018-Jun-10 07:29N 37°23' W 001°35'  

Dump ship's entire track history